createdAt,value
2023-01-12T00:02:57.267Z,39.17
2023-01-12T00:07:00.324Z,41.95
2023-01-12T00:11:02.895Z,44.53
2023-01-12T00:15:05.431Z,46.45
2023-01-12T00:19:13.290Z,46.08
2023-01-12T00:23:15.413Z,46.72
2023-01-12T00:27:19.972Z,45.95
2023-01-12T00:31:22.718Z,46.60
2023-01-12T00:35:24.487Z,46.75
2023-01-12T00:39:26.543Z,45.63
2023-01-12T00:43:46.764Z,46.95
2023-01-12T00:47:49.003Z,46.83
2023-01-12T00:51:51.077Z,49.28
2023-01-12T00:55:53.147Z,47.70
2023-01-12T00:59:58.077Z,46.10
2023-01-12T01:04:00.934Z,48.38
2023-01-12T01:08:04.482Z,47.42
2023-01-12T01:12:06.607Z,49.30
2023-01-12T01:16:09.084Z,46.80
2023-01-12T01:20:12.479Z,47.53
2023-01-12T01:24:15.086Z,49.20
2023-01-12T01:28:17.754Z,46.88
2023-01-12T01:32:19.901Z,45.22
2023-01-12T01:36:22.036Z,49.00
2023-01-12T01:40:24.498Z,48.35
2023-01-12T01:44:29.703Z,46.88
2023-01-12T01:48:34.109Z,46.15
2023-01-12T01:52:41.457Z,47.10
2023-01-12T01:56:45.351Z,48.87
2023-01-12T02:00:47.499Z,50.13
2023-01-12T02:04:49.546Z,46.85
2023-01-12T02:08:57.515Z,50.90
2023-01-12T02:13:18.161Z,49.47
2023-01-12T02:17:53.676Z,47.92
2023-01-12T02:22:20.984Z,56.78
2023-01-12T02:26:38.198Z,52.22
2023-01-12T02:30:51.961Z,55.53
2023-01-12T02:35:34.970Z,49.42
2023-01-12T02:39:58.981Z,50.50
2023-01-12T02:44:02.567Z,54.00
2023-01-12T02:48:12.109Z,50.90
2023-01-12T02:52:17.864Z,55.58
2023-01-12T02:56:30.254Z,55.83
2023-01-12T03:00:35.596Z,50.33
2023-01-12T03:04:38.038Z,49.55
2023-01-12T03:08:40.294Z,54.00
2023-01-12T03:12:44.924Z,55.38
2023-01-12T03:16:46.788Z,52.47
2023-01-12T03:20:53.575Z,54.53
2023-01-12T03:24:59.046Z,53.83
2023-01-12T03:29:15.054Z,52.95
2023-01-12T03:33:17.445Z,52.60
2023-01-12T03:37:34.643Z,55.47
2023-01-12T03:41:41.837Z,54.67
2023-01-12T03:45:52.420Z,53.80
2023-01-12T03:49:57.832Z,47.58
2023-01-12T03:54:00.533Z,50.88
2023-01-12T03:58:02.736Z,54.08
2023-01-12T04:02:04.769Z,53.25
2023-01-12T04:06:08.263Z,54.22
2023-01-12T04:10:10.614Z,49.67
2023-01-12T04:14:12.577Z,53.10
2023-01-12T04:18:14.675Z,52.58
2023-01-12T04:22:35.496Z,50.63
2023-01-12T04:26:37.493Z,49.05
2023-01-12T04:30:39.623Z,47.15
2023-01-12T04:34:41.655Z,53.28
2023-01-12T04:38:43.394Z,49.13
2023-01-12T04:43:07.026Z,52.97
2023-01-12T04:47:10.972Z,46.50
2023-01-12T04:51:12.822Z,47.97
2023-01-12T04:55:14.831Z,49.95
2023-01-12T04:59:16.599Z,51.65
2023-01-12T05:03:18.660Z,51.55
2023-01-12T05:07:20.685Z,51.92
2023-01-12T05:11:28.436Z,46.42
2023-01-12T05:15:30.484Z,46.75
2023-01-12T05:19:32.467Z,42.00
2023-01-12T05:23:34.587Z,46.05
2023-01-12T05:27:36.535Z,42.70
2023-01-12T05:31:38.555Z,45.45
2023-01-12T05:35:40.499Z,45.60
2023-01-12T05:39:42.513Z,41.90
2023-01-12T05:43:50.253Z,48.33
2023-01-12T05:47:59.813Z,51.70
2023-01-12T05:52:01.861Z,48.35
2023-01-12T05:56:08.383Z,47.30
2023-01-12T06:00:10.861Z,49.58
2023-01-12T06:04:14.391Z,54.40
2023-01-12T06:08:16.441Z,46.42
2023-01-12T06:12:36.590Z,50.78
2023-01-12T06:16:40.941Z,48.60
2023-01-12T06:20:42.998Z,49.05
2023-01-12T06:24:48.945Z,50.97
2023-01-12T06:28:51.027Z,50.13
2023-01-12T06:32:53.105Z,49.25
2023-01-12T06:36:55.063Z,57.28
2023-01-12T06:41:08.790Z,51.05
2023-01-12T06:45:10.933Z,54.72
2023-01-12T06:49:12.905Z,53.80
2023-01-12T06:53:14.865Z,55.25
2023-01-12T06:57:17.144Z,51.33
2023-01-12T07:01:19.571Z,53.08
2023-01-12T07:05:21.583Z,53.33
2023-01-12T07:09:23.561Z,56.70
2023-01-12T07:13:25.439Z,60.97
2023-01-12T07:17:27.423Z,54.25
2023-01-12T07:21:29.493Z,54.42
2023-01-12T07:25:31.492Z,50.58
2023-01-12T07:29:33.441Z,55.00
2023-01-12T07:33:37.718Z,52.10
2023-01-12T07:37:39.696Z,52.30
2023-01-12T07:42:00.440Z,50.53
2023-01-12T07:46:02.609Z,47.45
2023-01-12T07:50:05.308Z,48.95
2023-01-12T07:54:07.345Z,47.70
2023-01-12T07:58:10.063Z,48.10
2023-01-12T08:02:16.591Z,46.67
2023-01-12T08:06:18.744Z,45.85
2023-01-12T08:10:20.974Z,45.60
2023-01-12T08:14:28.119Z,46.25
2023-01-12T08:18:59.717Z,41.72
2023-01-12T08:23:16.672Z,42.50
2023-01-12T08:27:23.070Z,41.95
2023-01-12T08:31:26.299Z,40.40
2023-01-12T08:35:32.296Z,41.58
2023-01-12T08:39:35.368Z,39.38
2023-01-12T08:43:55.944Z,40.38
2023-01-12T08:47:58.010Z,40.08
2023-01-12T08:52:00.012Z,39.85
2023-01-12T08:56:02.180Z,39.38
2023-01-12T09:00:05.165Z,34.97
2023-01-12T09:04:07.141Z,33.40
2023-01-12T09:08:08.826Z,33.53
2023-01-12T09:12:10.772Z,33.85
2023-01-12T09:16:16.314Z,30.27
2023-01-12T09:20:18.334Z,31.00
2023-01-12T09:24:20.581Z,28.83
2023-01-12T09:28:23.228Z,26.52
2023-01-12T09:32:29.147Z,27.15
2023-01-12T09:36:39.770Z,25.27
2023-01-12T09:40:43.121Z,25.38
2023-01-12T09:45:07.784Z,25.85
2023-01-12T09:49:09.911Z,25.55
2023-01-12T09:53:16.040Z,24.60
2023-01-12T09:57:55.440Z,25.08
2023-01-12T10:01:57.586Z,24.98
2023-01-12T10:06:02.950Z,24.73
2023-01-12T10:10:05.380Z,21.88
2023-01-12T10:14:37.501Z,23.52
2023-01-12T10:18:47.426Z,20.05
2023-01-12T10:22:54.581Z,20.25
2023-01-12T10:27:01.775Z,18.73
2023-01-12T10:31:04.427Z,19.55
2023-01-12T10:35:13.611Z,17.15
2023-01-12T10:39:38.578Z,18.02
2023-01-12T10:43:42.325Z,17.00
2023-01-12T10:47:45.868Z,16.58
2023-01-12T10:51:55.562Z,15.98
2023-01-12T10:55:59.070Z,14.85
2023-01-12T11:00:02.854Z,13.40
2023-01-12T11:04:05.568Z,11.93
2023-01-12T11:08:22.979Z,11.77
2023-01-12T11:12:34.497Z,11.18
2023-01-12T11:16:48.112Z,11.05
2023-01-12T11:21:00.053Z,9.80
2023-01-12T11:25:13.107Z,12.40
2023-01-12T11:29:39.945Z,11.23
2023-01-12T11:33:49.412Z,11.15
2023-01-12T11:37:55.473Z,10.80
2023-01-12T11:42:20.231Z,10.40
2023-01-12T11:46:40.543Z,9.50
2023-01-12T11:50:43.041Z,8.63
2023-01-12T11:54:45.087Z,8.43
2023-01-12T11:58:55.314Z,8.68
2023-01-12T12:03:20.377Z,9.85
2023-01-12T12:07:28.364Z,8.65
2023-01-12T12:11:42.222Z,9.33
2023-01-12T12:15:59.260Z,8.65
2023-01-12T12:20:12.477Z,7.93
2023-01-12T12:24:41.926Z,7.38
2023-01-12T12:29:03.019Z,8.25
2023-01-12T12:33:19.947Z,7.45
2023-01-12T12:37:40.090Z,8.52
2023-01-12T12:42:21.256Z,7.80
2023-01-12T12:46:49.610Z,8.55
2023-01-12T12:51:05.218Z,11.63
2023-01-12T12:55:12.224Z,8.23
2023-01-12T12:59:52.172Z,10.63
2023-01-12T13:03:58.973Z,10.98
2023-01-12T13:08:01.120Z,13.18
2023-01-12T13:12:02.774Z,9.18
2023-01-12T13:16:20.126Z,9.25
2023-01-12T13:20:34.518Z,8.60
2023-01-12T13:24:41.821Z,9.85
2023-01-12T13:28:43.531Z,8.27
2023-01-12T13:32:54.762Z,10.18
2023-01-12T13:37:31.530Z,13.77
2023-01-12T13:41:54.654Z,27.88
2023-01-12T13:46:01.804Z,8.30
2023-01-12T13:50:04.366Z,9.10
2023-01-12T13:54:10.496Z,8.18
2023-01-12T13:58:18.226Z,20.85
2023-01-12T14:02:20.418Z,9.50
2023-01-12T14:06:38.200Z,7.85
2023-01-12T14:10:53.647Z,9.35
2023-01-12T14:15:23.566Z,7.57
2023-01-12T14:19:28.105Z,9.77
2023-01-12T14:23:33.773Z,7.32
2023-01-12T14:27:35.762Z,6.60
2023-01-12T14:31:44.693Z,7.60
2023-01-12T14:35:48.821Z,8.02
2023-01-12T14:39:50.905Z,8.38
2023-01-12T14:44:12.020Z,9.68
2023-01-12T14:48:28.627Z,7.35
2023-01-12T14:52:32.949Z,6.45
2023-01-12T14:56:49.137Z,7.10
2023-01-12T15:00:51.293Z,6.90
2023-01-12T15:04:56.077Z,7.45
2023-01-12T15:09:02.929Z,7.95
2023-01-12T15:13:32.923Z,8.73
2023-01-12T15:17:53.485Z,8.73
2023-01-12T15:22:15.337Z,8.25
2023-01-12T15:26:18.137Z,8.20
2023-01-12T15:30:20.336Z,8.50
2023-01-12T15:34:22.283Z,8.82
2023-01-12T15:38:28.122Z,9.52
2023-01-12T15:42:30.034Z,10.75
2023-01-12T15:46:32.020Z,10.45
2023-01-12T15:50:37.596Z,10.38
2023-01-12T15:54:39.748Z,11.45
2023-01-12T15:58:41.778Z,10.35
2023-01-12T16:02:45.616Z,12.35
2023-01-12T16:06:49.069Z,11.25
2023-01-12T16:11:09.329Z,11.43
2023-01-12T16:15:20.282Z,11.77
2023-01-12T16:19:22.443Z,12.95
2023-01-12T16:23:24.456Z,15.57
2023-01-12T16:27:27.148Z,15.13
2023-01-12T16:31:29.261Z,17.48
2023-01-12T16:35:33.181Z,16.65
2023-01-12T16:39:35.071Z,16.15
2023-01-12T16:43:38.117Z,20.90
2023-01-12T16:47:40.124Z,22.67
2023-01-12T16:51:42.086Z,20.73
2023-01-12T16:55:44.021Z,21.20
2023-01-12T16:59:46.198Z,21.23
2023-01-12T17:03:49.078Z,23.60
2023-01-12T17:07:51.354Z,23.02
2023-01-12T17:11:54.919Z,22.92
2023-01-12T17:15:57.178Z,23.65
2023-01-12T17:19:59.645Z,25.20
2023-01-12T17:24:01.535Z,23.13
2023-01-12T17:28:03.528Z,22.08
2023-01-12T17:32:07.054Z,20.52
2023-01-12T17:36:11.645Z,22.50
2023-01-12T17:40:13.880Z,21.67
2023-01-12T17:44:16.181Z,22.02
2023-01-12T17:48:19.637Z,22.08
2023-01-12T17:52:22.056Z,21.00
2023-01-12T17:56:25.411Z,20.02
2023-01-12T18:00:27.547Z,19.58
2023-01-12T18:04:29.709Z,20.67
2023-01-12T18:08:31.905Z,18.88
2023-01-12T18:12:34.007Z,18.05
2023-01-12T18:16:36.257Z,18.92
2023-01-12T18:20:38.324Z,19.17
2023-01-12T18:24:40.481Z,19.90
2023-01-12T18:28:42.967Z,22.02
2023-01-12T18:32:45.359Z,22.30
2023-01-12T18:36:47.628Z,20.27
2023-01-12T18:41:09.680Z,23.40
2023-01-12T18:45:11.865Z,24.90
2023-01-12T18:49:13.869Z,22.58
2023-01-12T18:53:33.556Z,22.80
2023-01-12T18:57:35.604Z,20.40
2023-01-12T19:01:37.790Z,20.10
2023-01-12T19:05:53.262Z,19.48
2023-01-12T19:09:56.615Z,18.73
2023-01-12T19:14:16.849Z,19.10
2023-01-12T19:18:19.080Z,19.25
2023-01-12T19:22:39.863Z,17.90
2023-01-12T19:27:01.159Z,18.02
2023-01-12T19:31:06.547Z,16.67
2023-01-12T19:35:11.377Z,15.20
2023-01-12T19:39:13.956Z,16.55
2023-01-12T19:43:20.465Z,15.60
2023-01-12T19:47:22.286Z,16.63
2023-01-12T19:51:24.458Z,13.55
2023-01-12T19:55:26.842Z,13.80
2023-01-12T19:59:28.939Z,12.82
2023-01-12T20:03:31.098Z,13.00
2023-01-12T20:07:33.325Z,14.10
2023-01-12T20:11:35.342Z,13.43
2023-01-12T20:15:38.991Z,12.75
2023-01-12T20:19:41.141Z,12.73
2023-01-12T20:23:43.244Z,12.93
2023-01-12T20:27:49.124Z,13.90
2023-01-12T20:31:52.855Z,14.02
2023-01-12T20:35:55.266Z,13.73
2023-01-12T20:39:58.069Z,13.30
2023-01-12T20:44:00.198Z,13.00
2023-01-12T20:48:02.190Z,12.00
2023-01-12T20:52:04.219Z,12.13
2023-01-12T20:56:07.064Z,13.20
2023-01-12T21:00:14.437Z,11.90
2023-01-12T21:04:19.358Z,12.60
2023-01-12T21:08:21.385Z,13.18
2023-01-12T21:12:24.317Z,11.93
2023-01-12T21:16:28.498Z,11.57
2023-01-12T21:20:30.604Z,11.20
2023-01-12T21:24:32.309Z,12.88
2023-01-12T21:28:37.060Z,12.52
2023-01-12T21:32:39.302Z,12.50
2023-01-12T21:36:41.405Z,12.38
2023-01-12T21:40:43.329Z,11.95
2023-01-12T21:44:45.533Z,12.70
2023-01-12T21:48:47.551Z,10.88
2023-01-12T21:52:49.560Z,12.63
2023-01-12T21:56:51.546Z,12.23
2023-01-12T22:00:53.956Z,13.18
2023-01-12T22:04:55.974Z,13.02
2023-01-12T22:08:58.732Z,12.93
2023-01-12T22:13:02.722Z,12.20
2023-01-12T22:17:04.666Z,12.93
2023-01-12T22:21:08.802Z,13.13
2023-01-12T22:25:13.040Z,15.57
2023-01-12T22:29:15.136Z,15.57
2023-01-12T22:33:17.295Z,14.75
2023-01-12T22:37:19.200Z,13.95
2023-01-12T22:41:22.541Z,12.68
2023-01-12T22:45:24.638Z,13.05
2023-01-12T22:49:26.622Z,14.57
2023-01-12T22:53:28.603Z,14.55
2023-01-12T22:57:30.853Z,13.30
2023-01-12T23:01:33.401Z,13.02
2023-01-12T23:05:42.791Z,12.15
2023-01-12T23:09:44.466Z,12.75
2023-01-12T23:13:46.885Z,12.23
2023-01-12T23:17:48.845Z,12.15
2023-01-12T23:21:50.567Z,12.07
2023-01-12T23:25:52.544Z,11.85
2023-01-12T23:29:54.202Z,12.02
2023-01-12T23:33:59.430Z,10.48
2023-01-12T23:38:01.612Z,11.98
2023-01-12T23:42:03.542Z,12.60
2023-01-12T23:46:05.799Z,12.40
2023-01-12T23:50:08.524Z,11.90
2023-01-12T23:54:16.383Z,12.48
2023-01-12T23:58:18.913Z,10.90
